createdAt,value
2023-05-02T00:01:21.257Z,100945.42
2023-05-02T00:03:45.302Z,100946.69
2023-05-02T00:06:20.316Z,100943.39
2023-05-02T00:08:48.994Z,100947.65
2023-05-02T00:11:07.802Z,100949.89
2023-05-02T00:13:36.708Z,100955.48
2023-05-02T00:16:13.708Z,100950.92
2023-05-02T00:18:41.557Z,100953.10
2023-05-02T00:21:15.521Z,100951.34
2023-05-02T00:23:51.237Z,100943.08
2023-05-02T00:26:26.755Z,100944.00
2023-05-02T00:28:55.380Z,100950.01
2023-05-02T00:31:29.850Z,100955.01
2023-05-02T00:34:03.232Z,100954.42
2023-05-02T00:36:38.329Z,100957.15
2023-05-02T00:39:12.141Z,100955.45
2023-05-02T00:41:48.184Z,100955.81
2023-05-02T00:44:25.098Z,100955.89
2023-05-02T00:46:59.065Z,100959.15
2023-05-02T00:49:38.138Z,100969.27
2023-05-02T00:52:05.679Z,100974.77
2023-05-02T00:54:50.948Z,100977.38
2023-05-02T00:57:27.127Z,100983.36
2023-05-02T00:59:54.496Z,100985.19
2023-05-02T01:02:42.327Z,100986.67
2023-05-02T01:05:14.928Z,100982.88
2023-05-02T01:08:12.536Z,100975.98
2023-05-02T01:11:05.533Z,100969.54
2023-05-02T01:13:31.750Z,100975.42
2023-05-02T01:16:00.295Z,100981.46
2023-05-02T01:18:39.262Z,100984.82
2023-05-02T01:21:09.979Z,100982.15
2023-05-02T01:23:55.734Z,100983.98
2023-05-02T01:26:49.948Z,100983.64
2023-05-02T01:29:26.515Z,100973.95
2023-05-02T01:32:04.326Z,100971.37
2023-05-02T01:34:42.516Z,100971.02
2023-05-02T01:37:19.889Z,100972.00
2023-05-02T01:39:48.330Z,100975.69
2023-05-02T01:42:26.477Z,100973.23
2023-05-02T01:45:06.869Z,100971.71
2023-05-02T01:47:34.136Z,100969.83
2023-05-02T01:49:57.736Z,100957.17
2023-05-02T01:52:27.730Z,100958.20
2023-05-02T01:54:54.789Z,100958.59
2023-05-02T01:57:32.571Z,100964.05
2023-05-02T02:00:11.178Z,100958.47
2023-05-02T02:02:34.420Z,100957.88
2023-05-02T02:05:05.017Z,100952.87
2023-05-02T02:07:30.373Z,100941.02
2023-05-02T02:09:51.073Z,100940.05
2023-05-02T02:12:15.986Z,100944.52
2023-05-02T02:14:47.014Z,100942.80
2023-05-02T02:17:28.038Z,100947.64
2023-05-02T02:19:49.488Z,100954.13
2023-05-02T02:22:16.094Z,100967.29
2023-05-02T02:24:45.057Z,100973.45
2023-05-02T02:27:09.161Z,100973.73
2023-05-02T02:29:38.041Z,100971.73
2023-05-02T02:32:00.274Z,100966.90
2023-05-02T02:34:35.693Z,100962.77
2023-05-02T02:37:00.936Z,100968.28
2023-05-02T02:39:31.313Z,100974.77
2023-05-02T02:42:02.769Z,100977.37
2023-05-02T02:44:34.708Z,100978.09
2023-05-02T02:47:05.237Z,100983.48
2023-05-02T02:49:36.341Z,100984.95
2023-05-02T02:52:07.738Z,100982.90
2023-05-02T02:54:38.538Z,100978.56
2023-05-02T02:57:11.607Z,100976.14
2023-05-02T02:59:37.997Z,100965.40
2023-05-02T03:02:18.088Z,100964.82
2023-05-02T03:04:55.153Z,100970.73
2023-05-02T03:07:31.205Z,100973.48
2023-05-02T03:10:19.981Z,100973.61
2023-05-02T03:12:57.473Z,100976.34
2023-05-02T03:15:52.089Z,100976.35
2023-05-02T03:18:07.908Z,100969.82
2023-05-02T03:20:34.420Z,100973.13
2023-05-02T03:22:59.527Z,100974.94
2023-05-02T03:25:17.286Z,100977.04
2023-05-02T03:27:53.873Z,100982.66
2023-05-02T03:30:31.488Z,100982.46
2023-05-02T03:32:51.761Z,100977.99
2023-05-02T03:35:27.551Z,100989.36
2023-05-02T03:37:54.849Z,100991.11
2023-05-02T03:40:46.208Z,100987.67
2023-05-02T03:43:10.550Z,100990.77
2023-05-02T03:45:39.159Z,100984.83
2023-05-02T03:47:57.046Z,100981.55
2023-05-02T03:50:26.617Z,100987.38
2023-05-02T03:52:48.815Z,100997.42
2023-05-02T03:55:15.813Z,101009.70
2023-05-02T03:57:37.673Z,101013.80
2023-05-02T04:00:02.209Z,101014.63
2023-05-02T04:02:25.538Z,101021.89
2023-05-02T04:05:00.792Z,101018.86
2023-05-02T04:07:20.002Z,101019.75
2023-05-02T04:09:56.098Z,101009.23
2023-05-02T04:12:20.088Z,100991.52
2023-05-02T04:14:45.085Z,100978.88
2023-05-02T04:17:10.930Z,100990.03
2023-05-02T04:19:34.289Z,101009.64
2023-05-02T04:21:57.165Z,101013.83
2023-05-02T04:24:20.466Z,101015.96
2023-05-02T04:26:55.669Z,101006.62
2023-05-02T04:29:31.567Z,100998.79
2023-05-02T04:31:55.644Z,100998.88
2023-05-02T04:34:33.146Z,101002.52
2023-05-02T04:37:08.857Z,100998.23
2023-05-02T04:39:31.056Z,100998.03
2023-05-02T04:41:52.556Z,101000.17
2023-05-02T04:44:08.786Z,101004.16
2023-05-02T04:46:36.851Z,101004.59
2023-05-02T04:48:59.698Z,101006.53
2023-05-02T04:51:23.530Z,101009.33
2023-05-02T04:53:56.002Z,101012.17
2023-05-02T04:56:31.161Z,101014.60
2023-05-02T04:58:45.544Z,101014.44
2023-05-02T05:01:02.887Z,101001.72
2023-05-02T05:03:26.253Z,100992.55
2023-05-02T05:05:56.251Z,100997.07
2023-05-02T05:08:31.397Z,101000.85
2023-05-02T05:10:58.053Z,101008.43
2023-05-02T05:13:30.337Z,101020.52
2023-05-02T05:15:54.424Z,101021.55
2023-05-02T05:18:18.474Z,101020.54
2023-05-02T05:20:54.505Z,101029.33
2023-05-02T05:23:19.368Z,101035.96
2023-05-02T05:25:38.083Z,101039.85
2023-05-02T05:27:53.848Z,101040.92
2023-05-02T05:30:24.017Z,101039.75
2023-05-02T05:32:41.594Z,101037.52
2023-05-02T05:35:13.446Z,101038.42
2023-05-02T05:37:41.255Z,101039.14
2023-05-02T05:40:06.460Z,101035.11
2023-05-02T05:42:41.028Z,101035.11
2023-05-02T05:45:18.526Z,101032.73
2023-05-02T05:47:47.156Z,101033.11
2023-05-02T05:50:22.616Z,101034.92
2023-05-02T05:52:57.775Z,101042.09
2023-05-02T05:55:25.355Z,101046.27
2023-05-02T05:57:58.623Z,101045.27
2023-05-02T06:00:37.791Z,101035.05
2023-05-02T06:03:15.218Z,101040.85
2023-05-02T06:05:41.925Z,101042.56
2023-05-02T06:08:16.472Z,101043.92
2023-05-02T06:10:51.689Z,101044.43
2023-05-02T06:13:18.050Z,101048.73
2023-05-02T06:15:42.509Z,101046.05
2023-05-02T06:18:17.899Z,101040.76
2023-05-02T06:20:52.436Z,101041.19
2023-05-02T06:23:28.961Z,101050.27
2023-05-02T06:26:06.120Z,101060.82
2023-05-02T06:28:40.979Z,101063.89
2023-05-02T06:31:08.764Z,101061.48
2023-05-02T06:33:44.157Z,101053.73
2023-05-02T06:36:08.037Z,101054.70
2023-05-02T06:38:43.794Z,101054.33
2023-05-02T06:41:22.061Z,101054.41
2023-05-02T06:43:58.327Z,101050.95
2023-05-02T06:46:35.788Z,101041.01
2023-05-02T06:49:12.909Z,101036.44
2023-05-02T06:51:49.246Z,101039.34
2023-05-02T06:54:16.248Z,101041.33
2023-05-02T06:56:44.212Z,101046.25
2023-05-02T06:59:12.150Z,101047.78
2023-05-02T07:01:35.800Z,101048.58
2023-05-02T07:04:09.787Z,101046.41
2023-05-02T07:06:44.378Z,101041.20
2023-05-02T07:09:18.136Z,101025.91
2023-05-02T07:14:31.824Z,101009.27
2023-05-02T07:17:07.302Z,101001.26
2023-05-02T07:19:35.748Z,101000.29
2023-05-02T07:22:10.175Z,100992.48
2023-05-02T07:24:48.230Z,100987.77
2023-05-02T07:27:17.255Z,100972.05
2023-05-02T07:29:46.247Z,100963.48
2023-05-02T07:32:21.071Z,100966.33
2023-05-02T07:34:57.661Z,100977.23
2023-05-02T07:37:36.031Z,100984.38
2023-05-02T07:40:10.874Z,100975.38
2023-05-02T07:42:49.298Z,100963.17
2023-05-02T07:45:23.791Z,100950.12
2023-05-02T07:47:59.324Z,100951.87
2023-05-02T07:50:34.229Z,100964.06
2023-05-02T07:53:09.598Z,100963.30
2023-05-02T07:55:43.601Z,100954.98
2023-05-02T07:58:18.438Z,100950.30
2023-05-02T08:00:53.849Z,100948.51
2023-05-02T08:03:29.403Z,100953.15
2023-05-02T08:05:53.123Z,100959.15
2023-05-02T08:08:27.729Z,100970.10
2023-05-02T08:11:02.767Z,100971.90
2023-05-02T08:13:37.697Z,100972.73
2023-05-02T08:16:13.394Z,100965.39
2023-05-02T08:18:48.643Z,100950.63
2023-05-02T08:21:24.201Z,100941.18
2023-05-02T08:24:01.230Z,100941.35
2023-05-02T08:26:39.018Z,100933.52
2023-05-02T08:29:12.899Z,100939.28
2023-05-02T08:31:41.119Z,100956.75
2023-05-02T08:34:16.119Z,100965.98
2023-05-02T08:36:50.325Z,100946.41
2023-05-02T08:39:25.084Z,100921.48
2023-05-02T08:41:59.633Z,100917.89
2023-05-02T08:44:36.163Z,100915.02
2023-05-02T08:47:14.843Z,100916.74
2023-05-02T08:49:50.084Z,100926.13
2023-05-02T08:52:21.741Z,100934.13
2023-05-02T08:54:46.551Z,100939.12
2023-05-02T08:57:16.649Z,100950.52
2023-05-02T08:59:46.189Z,100967.58
2023-05-02T09:02:27.654Z,100971.81
2023-05-02T09:05:05.612Z,100954.63
2023-05-02T09:07:51.499Z,100940.96
2023-05-02T09:10:29.565Z,100950.17
2023-05-02T09:12:56.618Z,100962.48
2023-05-02T09:15:32.560Z,100957.99
2023-05-02T09:17:56.202Z,100939.80
2023-05-02T09:20:25.740Z,100918.54
2023-05-02T09:23:01.559Z,100913.55
2023-05-02T09:25:43.612Z,100920.72
2023-05-02T09:28:17.636Z,100917.44
2023-05-02T09:30:53.800Z,100912.30
2023-05-02T09:33:36.838Z,100916.25
2023-05-02T09:36:04.577Z,100920.15
2023-05-02T09:38:38.596Z,100918.25
2023-05-02T09:41:04.847Z,100916.66
2023-05-02T09:43:40.387Z,100911.71
2023-05-02T09:46:11.904Z,100898.45
2023-05-02T09:49:00.058Z,100886.39
2023-05-02T09:51:36.250Z,100890.89
2023-05-02T09:54:09.717Z,100896.52
2023-05-02T09:56:55.421Z,100902.00
2023-05-02T09:59:29.692Z,100898.23
2023-05-02T10:02:04.090Z,100900.99
2023-05-02T10:04:42.352Z,100899.48
2023-05-02T10:07:13.951Z,100907.11
2023-05-02T10:09:53.953Z,100904.88
2023-05-02T10:12:22.457Z,100889.81
2023-05-02T10:15:04.650Z,100880.79
2023-05-02T10:17:48.432Z,100874.91
2023-05-02T10:20:22.600Z,100882.34
2023-05-02T10:22:57.430Z,100888.88
2023-05-02T10:25:31.978Z,100871.56
2023-05-02T10:28:07.888Z,100848.48
2023-05-02T10:30:43.353Z,100835.09
2023-05-02T10:33:20.769Z,100831.33
2023-05-02T10:35:51.274Z,100823.88
2023-05-02T10:38:27.777Z,100805.42
2023-05-02T10:41:05.269Z,100788.01
2023-05-02T10:43:41.485Z,100786.41
2023-05-02T10:46:36.928Z,100797.89
2023-05-02T10:49:13.271Z,100816.73
2023-05-02T10:51:48.112Z,100824.44
2023-05-02T10:54:30.557Z,100792.04
2023-05-02T10:57:12.444Z,100760.65
2023-05-02T10:59:48.756Z,100761.19
2023-05-02T11:02:54.511Z,100765.34
2023-05-02T11:05:30.367Z,100760.71
2023-05-02T11:08:15.674Z,100766.48
2023-05-02T11:10:50.774Z,100778.79
2023-05-02T11:13:57.805Z,100789.04
2023-05-02T11:16:31.557Z,100820.61
2023-05-02T11:19:07.836Z,100837.36
2023-05-02T11:21:40.425Z,100838.45
2023-05-02T11:24:45.809Z,100814.54
2023-05-02T11:27:47.756Z,100838.17
2023-05-02T11:30:40.568Z,100848.30
2023-05-02T11:33:22.389Z,100840.45
2023-05-02T11:35:59.362Z,100826.23
2023-05-02T11:38:42.417Z,100828.34
2023-05-02T11:41:16.884Z,100831.48
2023-05-02T11:43:50.997Z,100845.33
2023-05-02T11:46:26.901Z,100839.04
2023-05-02T11:48:56.359Z,100836.73
2023-05-02T11:51:33.040Z,100832.55
2023-05-02T11:54:09.260Z,100831.97
2023-05-02T11:56:37.844Z,100822.53
2023-05-02T11:59:11.471Z,100811.34
2023-05-02T12:01:54.882Z,100811.65
2023-05-02T12:04:29.527Z,100812.52
2023-05-02T12:07:03.765Z,100826.87
2023-05-02T12:09:32.418Z,100819.83
2023-05-02T12:12:08.609Z,100813.25
2023-05-02T12:14:39.347Z,100818.06
2023-05-02T12:17:08.090Z,100828.66
2023-05-02T12:19:38.583Z,100838.98
2023-05-02T12:22:14.700Z,100835.92
2023-05-02T12:24:50.647Z,100840.53
2023-05-02T12:27:21.689Z,100835.13
2023-05-02T12:29:50.670Z,100819.45
2023-05-02T12:32:35.605Z,100805.58
2023-05-02T12:35:24.360Z,100794.67
2023-05-02T12:38:11.769Z,100794.42
2023-05-02T12:40:52.894Z,100790.97
2023-05-02T12:43:26.829Z,100783.07
2023-05-02T12:46:18.112Z,100772.02
2023-05-02T12:49:05.100Z,100764.92
2023-05-02T12:51:40.798Z,100758.38
2023-05-02T12:54:24.053Z,100753.40
2023-05-02T12:56:59.121Z,100756.95
2023-05-02T12:59:38.251Z,100760.32
2023-05-02T13:02:14.829Z,100757.91
2023-05-02T13:04:44.424Z,100758.52
2023-05-02T13:07:19.698Z,100761.48
2023-05-02T13:09:56.228Z,100761.30
2023-05-02T13:12:18.011Z,100760.36
2023-05-02T13:14:52.992Z,100756.66
2023-05-02T13:17:27.618Z,100758.30
2023-05-02T13:20:02.977Z,100757.39
2023-05-02T13:22:38.445Z,100755.05
2023-05-02T13:25:15.797Z,100750.73
2023-05-02T13:27:50.199Z,100751.21
2023-05-02T13:30:19.484Z,100744.63
2023-05-02T13:32:43.786Z,100739.45
2023-05-02T13:35:07.268Z,100736.38
2023-05-02T13:37:30.704Z,100729.45
2023-05-02T13:40:06.137Z,100716.77
2023-05-02T13:42:40.623Z,100711.32
2023-05-02T13:45:18.151Z,100710.19
2023-05-02T13:47:45.839Z,100712.06
2023-05-02T13:50:22.447Z,100713.21
2023-05-02T13:52:58.121Z,100719.20
2023-05-02T13:55:34.247Z,100712.88
2023-05-02T13:58:09.820Z,100704.29
2023-05-02T14:00:45.368Z,100704.86
2023-05-02T14:03:14.861Z,100704.91
2023-05-02T14:05:45.820Z,100705.02
2023-05-02T14:08:20.620Z,100716.75
2023-05-02T14:10:56.462Z,100726.40
2023-05-02T14:13:31.729Z,100733.28
2023-05-02T14:16:07.379Z,100740.05
2023-05-02T14:18:39.814Z,100732.45
2023-05-02T14:21:07.227Z,100730.59
2023-05-02T14:23:43.710Z,100725.17
2023-05-02T14:26:17.246Z,100726.48
2023-05-02T14:28:40.716Z,100725.41
2023-05-02T14:31:08.519Z,100732.32
2023-05-02T14:33:31.327Z,100727.99
2023-05-02T14:35:58.625Z,100720.48
2023-05-02T14:38:29.946Z,100711.42
2023-05-02T14:41:04.397Z,100706.19
2023-05-02T14:43:40.618Z,100696.27
2023-05-02T14:46:08.357Z,100708.46
2023-05-02T14:48:43.763Z,100723.69
2023-05-02T14:51:18.792Z,100724.30
2023-05-02T14:53:47.599Z,100727.81
2023-05-02T14:56:20.167Z,100723.73
2023-05-02T14:58:53.405Z,100725.74
2023-05-02T15:01:27.332Z,100718.89
2023-05-02T15:04:05.063Z,100719.59
2023-05-02T15:06:38.899Z,100727.94
2023-05-02T15:09:15.384Z,100730.34
2023-05-02T15:11:42.368Z,100727.58
2023-05-02T15:14:16.125Z,100724.96
2023-05-02T15:16:44.117Z,100733.39
2023-05-02T15:19:18.175Z,100732.35
2023-05-02T15:21:45.534Z,100727.22
2023-05-02T15:24:20.276Z,100718.20
2023-05-02T15:26:56.693Z,100715.31
2023-05-02T15:29:27.108Z,100712.33
2023-05-02T15:32:01.343Z,100708.01
2023-05-02T15:34:37.738Z,100709.47
2023-05-02T15:37:12.638Z,100712.80
2023-05-02T15:39:41.358Z,100712.59
2023-05-02T15:42:16.832Z,100718.48
2023-05-02T15:44:52.251Z,100716.71
2023-05-02T15:47:27.342Z,100718.20
2023-05-02T15:49:56.501Z,100715.20
2023-05-02T15:52:31.324Z,100710.41
2023-05-02T15:54:52.838Z,100709.36
2023-05-02T15:57:29.272Z,100704.39
2023-05-02T16:00:03.876Z,100707.47
2023-05-02T16:02:18.240Z,100710.38
2023-05-02T16:04:53.158Z,100710.48
2023-05-02T16:07:16.574Z,100705.16
2023-05-02T16:09:41.388Z,100705.83
2023-05-02T16:12:16.107Z,100703.30
2023-05-02T16:14:44.616Z,100705.99
2023-05-02T16:17:11.959Z,100699.34
2023-05-02T16:19:47.057Z,100698.64
2023-05-02T16:22:23.350Z,100694.57
2023-05-02T16:24:59.354Z,100688.50
2023-05-02T16:27:37.165Z,100684.98
2023-05-02T16:30:16.471Z,100692.33
2023-05-02T16:32:51.465Z,100690.63
2023-05-02T16:35:27.957Z,100698.70
2023-05-02T16:38:03.068Z,100692.96
2023-05-02T16:40:28.246Z,100689.48
2023-05-02T16:43:04.868Z,100686.77
2023-05-02T16:45:38.579Z,100688.92
2023-05-02T16:48:13.848Z,100682.38
2023-05-02T16:50:49.876Z,100685.23
2023-05-02T16:53:27.934Z,100689.02
2023-05-02T16:55:54.765Z,100689.30
2023-05-02T16:58:31.053Z,100688.47
2023-05-02T17:01:05.194Z,100691.84
2023-05-02T17:03:35.812Z,100699.12
2023-05-02T17:06:11.386Z,100698.54
2023-05-02T17:08:46.380Z,100693.30
2023-05-02T17:11:10.988Z,100690.00
2023-05-02T17:13:38.565Z,100685.70
2023-05-02T17:16:09.643Z,100679.95
2023-05-02T17:18:45.450Z,100673.92
2023-05-02T17:21:15.208Z,100665.80
2023-05-02T17:23:49.371Z,100659.83
2023-05-02T17:26:24.932Z,100665.31
2023-05-02T17:28:54.834Z,100673.89
2023-05-02T17:31:29.724Z,100671.08
2023-05-02T17:34:04.921Z,100666.69
2023-05-02T17:36:43.153Z,100670.67
2023-05-02T17:39:13.835Z,100667.46
2023-05-02T17:41:38.970Z,100664.96
2023-05-02T17:44:12.791Z,100666.56
2023-05-02T17:46:47.606Z,100671.36
2023-05-02T17:49:16.889Z,100666.08
2023-05-02T17:51:44.163Z,100671.78
2023-05-02T17:54:12.188Z,100667.14
2023-05-02T17:56:39.552Z,100664.61
2023-05-02T17:59:15.498Z,100660.98
2023-05-02T18:01:53.688Z,100663.69
2023-05-02T18:04:27.907Z,100666.05
2023-05-02T18:07:05.682Z,100667.27
2023-05-02T18:09:40.529Z,100663.86
2023-05-02T18:12:14.776Z,100662.14
2023-05-02T18:14:48.879Z,100663.29
2023-05-02T18:17:27.926Z,100667.81
2023-05-02T18:20:05.451Z,100675.69
2023-05-02T18:22:40.557Z,100671.66
2023-05-02T18:25:16.830Z,100667.91
2023-05-02T18:27:51.592Z,100664.38
2023-05-02T18:30:26.879Z,100667.55
2023-05-02T18:33:00.647Z,100671.48
2023-05-02T18:35:24.001Z,100664.27
2023-05-02T18:37:53.229Z,100672.85
2023-05-02T18:40:20.854Z,100677.86
2023-05-02T18:42:55.198Z,100679.55
2023-05-02T18:45:22.683Z,100679.10
2023-05-02T18:47:52.327Z,100681.90
2023-05-02T18:50:21.612Z,100679.06
2023-05-02T18:52:56.097Z,100678.17
2023-05-02T18:55:25.942Z,100664.89
2023-05-02T18:57:54.415Z,100645.43
2023-05-02T19:00:31.720Z,100635.92
2023-05-02T19:03:00.868Z,100631.50
2023-05-02T19:05:29.156Z,100626.61
2023-05-02T19:08:06.179Z,100630.27
2023-05-02T19:10:33.554Z,100637.45
2023-05-02T19:13:08.201Z,100650.39
2023-05-02T19:15:43.844Z,100658.16
2023-05-02T19:18:19.156Z,100674.09
2023-05-02T19:20:54.185Z,100667.79
2023-05-02T19:23:23.344Z,100652.44
2023-05-02T19:25:48.653Z,100661.68
2023-05-02T19:28:24.211Z,100688.98
2023-05-02T19:30:52.651Z,100689.00
2023-05-02T19:33:27.852Z,100689.47
2023-05-02T19:36:03.086Z,100688.98
2023-05-02T19:38:30.757Z,100655.76
2023-05-02T19:41:05.863Z,100667.00
2023-05-02T19:43:34.410Z,100671.33
2023-05-02T19:46:09.397Z,100673.88
2023-05-02T19:48:43.710Z,100645.91
2023-05-02T19:51:15.143Z,100638.80
2023-05-02T19:53:49.899Z,100647.09
2023-05-02T19:56:26.620Z,100621.48
2023-05-02T19:59:03.569Z,100633.48
2023-05-02T20:01:32.522Z,100625.65
2023-05-02T20:03:56.803Z,100638.17
2023-05-02T20:06:25.322Z,100646.05
2023-05-02T20:09:00.854Z,100647.09
2023-05-02T20:11:27.568Z,100670.67
2023-05-02T20:13:55.900Z,100645.23
2023-05-02T20:16:24.380Z,100648.08
2023-05-02T20:18:58.953Z,100653.40
2023-05-02T20:21:34.032Z,100656.55
2023-05-02T20:24:07.928Z,100660.09
2023-05-02T20:26:35.495Z,100654.16
2023-05-02T20:29:11.881Z,100656.13
2023-05-02T20:31:41.351Z,100649.70
2023-05-02T20:34:11.617Z,100645.66
2023-05-02T20:36:47.746Z,100643.06
2023-05-02T20:39:15.798Z,100629.61
2023-05-02T20:41:44.585Z,100626.44
2023-05-02T20:44:20.024Z,100601.15
2023-05-02T20:46:46.347Z,100624.73
2023-05-02T20:49:21.584Z,100668.09
2023-05-02T20:51:57.562Z,100669.36
2023-05-02T20:54:16.317Z,100667.63
2023-05-02T20:56:51.167Z,100680.93
2023-05-02T20:59:26.699Z,100666.02
2023-05-02T21:01:56.010Z,100665.71
2023-05-02T21:04:23.749Z,100659.25
2023-05-02T21:06:54.297Z,100635.17
2023-05-02T21:09:22.599Z,100634.59
2023-05-02T21:11:57.249Z,100622.16
2023-05-02T21:14:32.876Z,100613.92
2023-05-02T21:17:07.549Z,100604.07
2023-05-02T21:19:42.540Z,100610.94
2023-05-02T21:22:17.721Z,100646.29
2023-05-02T21:24:53.012Z,100634.32
2023-05-02T21:27:27.786Z,100610.46
2023-05-02T21:30:04.108Z,100654.10
2023-05-02T21:32:39.517Z,100628.65
2023-05-02T21:35:07.578Z,100646.23
2023-05-02T21:37:37.360Z,100638.26
2023-05-02T21:40:15.026Z,100634.61
2023-05-02T21:42:37.631Z,100638.18
2023-05-02T21:45:14.356Z,100644.95
2023-05-02T21:47:40.950Z,100645.72
2023-05-02T21:50:19.539Z,100664.56
2023-05-02T21:52:54.933Z,100670.42
2023-05-02T21:55:21.479Z,100667.98
2023-05-02T21:57:57.414Z,100686.13
2023-05-02T22:00:33.192Z,100686.63
2023-05-02T22:03:12.789Z,100695.63
2023-05-02T22:05:35.526Z,100700.54
2023-05-02T22:07:58.734Z,100698.37
2023-05-02T22:10:33.833Z,100706.06
2023-05-02T22:13:10.676Z,100712.32
2023-05-02T22:15:35.255Z,100705.33
2023-05-02T22:18:03.744Z,100686.11
2023-05-02T22:23:29.057Z,100703.02
2023-05-02T22:25:57.985Z,100696.42
2023-05-02T22:28:33.938Z,100696.05
2023-05-02T22:31:00.906Z,100710.89
2023-05-02T22:33:36.206Z,100709.38
2023-05-02T22:36:12.264Z,100700.85
2023-05-02T22:38:48.901Z,100704.56
2023-05-02T22:41:25.286Z,100698.91
2023-05-02T22:43:59.490Z,100705.94
2023-05-02T22:46:27.041Z,100708.10
2023-05-02T22:48:59.136Z,100716.81
2023-05-02T22:51:34.478Z,100721.77
2023-05-02T22:54:10.305Z,100719.86
2023-05-02T22:56:47.317Z,100722.49
2023-05-02T22:59:16.768Z,100719.29
2023-05-02T23:01:40.829Z,100713.86
2023-05-02T23:04:16.210Z,100709.17
2023-05-02T23:06:50.869Z,100715.20
2023-05-02T23:09:27.040Z,100719.78
2023-05-02T23:11:53.299Z,100722.86
2023-05-02T23:14:28.598Z,100727.44
2023-05-02T23:16:47.654Z,100731.72
2023-05-02T23:19:21.833Z,100740.41
2023-05-02T23:21:56.217Z,100744.90
2023-05-02T23:24:31.653Z,100747.95
2023-05-02T23:27:09.483Z,100750.13
2023-05-02T23:29:44.027Z,100749.70
2023-05-02T23:32:19.076Z,100751.52
2023-05-02T23:34:53.776Z,100754.83
2023-05-02T23:37:28.637Z,100762.66
2023-05-02T23:40:03.802Z,100768.04
2023-05-02T23:42:41.399Z,100772.87
2023-05-02T23:45:18.621Z,100782.02
2023-05-02T23:47:51.446Z,100790.71
2023-05-02T23:50:27.202Z,100793.13
2023-05-02T23:52:58.189Z,100803.56
2023-05-02T23:55:26.227Z,100810.32
2023-05-02T23:58:03.403Z,100817.48
